Terminal Aerodrome Forecast
Issued by NWS

Home | Current Version | Previous Version | Text Only | Print | Product List | Glossary On
Versions: 1 2 3 4 5 6 7 8 9 10 11 12 13 14 15 16 17
000
FTUS43 KBIS 051724
TAFDIK
TAF
KDIK 051724Z 0518/0618 16021G30KT P6SM FEW110
     FM052200 15021G29KT P6SM SCT050 BKN080
     FM060200 14014G19KT P6SM BKN060
     FM060600 13011KT 6SM BR VCSH SCT012 OVC025
     FM060800 14011KT 4SM -SHRA BR OVC015=

USA.gov is the U.S. government's official web portal to all federal, state and local government web resources and services.